Time;durP1;ratioP1;P1;durP2;ratioP2;P2;SDS_P1;SDS_P2;PMS_P1;PMS_P2;Temp;Humidity;BMP_temperature;BMP_pressure;BME280_temperature;BME280_humidity;BME280_pressure;Samples;Min_cycle;Max_cycle;Signal;HPM_P1;HPM_P2
2021/04/26 00:02:40;;;;;;;4.03;2.15;;;;;;;8.70;41.81;100742.16;10289900;28;20051;-70
2021/04/26 00:07:41;;;;;;;4.45;2.50;;;;;;;8.67;41.01;100727.25;10286750;28;20583;-72
2021/04/26 00:12:43;;;;;;;6.15;2.85;;;;;;;8.77;41.27;100732.84;10275031;28;20394;-72
2021/04/26 00:17:47;;;;;;;6.18;2.33;;;;;;;8.84;41.04;100728.84;10290657;28;20111;-71
2021/04/26 00:22:48;;;;;;;3.38;2.65;;;;;;;8.72;41.60;100729.66;10275263;28;20042;-71
2021/04/26 00:27:49;;;;;;;4.95;2.95;;;;;;;8.72;41.53;100728.78;10264351;28;20043;-71
2021/04/26 00:32:51;;;;;;;4.40;2.70;;;;;;;8.77;41.70;100727.53;10259428;28;20050;-72
2021/04/26 00:37:53;;;;;;;5.35;2.80;;;;;;;8.73;41.27;100720.72;10274391;28;20068;-72
2021/04/26 00:42:54;;;;;;;3.83;2.80;;;;;;;8.71;41.71;100717.31;10263465;28;20135;-71
2021/04/26 00:47:55;;;;;;;4.03;2.38;;;;;;;8.68;41.45;100709.56;10261151;28;20110;-71
2021/04/26 00:52:57;;;;;;;6.13;2.70;;;;;;;8.61;41.67;100716.22;10264248;28;20065;-71
2021/04/26 00:57:58;;;;;;;3.72;2.15;;;;;;;8.48;41.51;100702.88;10261958;28;20051;-71
2021/04/26 01:03:00;;;;;;;4.55;2.92;;;;;;;8.47;41.67;100695.88;10262822;28;20106;-72
2021/04/26 01:08:02;;;;;;;4.88;2.50;;;;;;;8.47;41.93;100707.34;10278655;28;20128;-71
2021/04/26 01:13:15;;;;;;;3.20;2.13;;;;;;;8.45;41.92;100711.91;10267337;28;20627;-71
2021/04/26 01:18:29;;;;;;;5.32;2.67;;;;;;;8.31;42.26;100706.59;10267759;28;20071;-71
2021/04/26 01:24:00;;;;;;;3.38;2.45;;;;;;;8.34;42.61;100698.44;10264650;28;20058;-71
2021/04/26 01:29:11;;;;;;;4.00;2.45;;;;;;;8.26;42.67;100690.97;10269604;28;20074;-71
2021/04/26 01:34:12;;;;;;;4.38;2.80;;;;;;;8.25;42.63;100697.22;10258705;28;20203;-70
2021/04/26 01:39:16;;;;;;;5.00;2.90;;;;;;;8.17;43.14;100696.00;10268479;28;20047;-72
2021/04/26 01:44:19;;;;;;;6.20;2.83;;;;;;;8.14;43.25;100687.28;10296006;28;20824;-71
2021/04/26 01:49:22;;;;;;;5.75;2.90;;;;;;;8.04;43.44;100674.72;10255508;28;20106;-72
2021/04/26 01:54:27;;;;;;;3.85;2.92;;;;;;;7.99;43.84;100677.66;10259080;28;20073;-71
2021/04/26 01:59:28;;;;;;;3.38;3.10;;;;;;;7.94;44.08;100672.66;10265219;28;20046;-71
2021/04/26 02:04:32;;;;;;;4.90;3.35;;;;;;;7.91;44.11;100669.31;10273447;28;20061;-71
2021/04/26 02:09:39;;;;;;;4.53;2.65;;;;;;;7.83;44.13;100666.31;10278648;28;20118;-71
2021/04/26 02:14:41;;;;;;;4.88;3.30;;;;;;;7.78;44.28;100663.94;10261900;28;20270;-71
2021/04/26 02:19:42;;;;;;;6.03;3.08;;;;;;;7.65;44.46;100663.84;10275192;28;20074;-72
2021/04/26 02:24:43;;;;;;;4.85;2.80;;;;;;;7.67;44.31;100669.94;10266617;28;20059;-70
2021/04/26 02:29:44;;;;;;;4.32;3.05;;;;;;;7.48;44.64;100649.00;10263211;28;20586;-72
2021/04/26 02:34:49;;;;;;;7.53;3.17;;;;;;;7.48;44.75;100643.69;10257081;28;20051;-72
2021/04/26 02:39:51;;;;;;;3.45;2.55;;;;;;;7.48;44.64;100640.22;10277397;28;20070;-71
2021/04/26 02:44:53;;;;;;;5.45;3.03;;;;;;;7.39;44.54;100631.88;10264582;28;20051;-72
2021/04/26 02:49:58;;;;;;;3.35;2.60;;;;;;;7.34;44.44;100623.38;10257561;28;20133;-73
2021/04/26 02:55:01;;;;;;;5.45;2.75;;;;;;;7.35;44.60;100624.22;10249318;28;20187;-72
2021/04/26 03:00:10;;;;;;;3.95;2.33;;;;;;;7.15;45.11;100612.19;10262173;28;20148;-70
2021/04/26 03:05:14;;;;;;;4.47;3.17;;;;;;;7.06;45.34;100592.41;10265977;28;20465;-71
2021/04/26 03:10:17;;;;;;;5.28;2.60;;;;;;;7.11;44.76;100595.63;10271534;28;20133;-71
2021/04/26 03:15:22;;;;;;;4.55;3.00;;;;;;;7.14;44.93;100599.88;10276137;28;20051;-71
2021/04/26 03:20:24;;;;;;;4.15;2.85;;;;;;;7.04;45.11;100587.22;10277861;28;20097;-71
2021/04/26 03:25:25;;;;;;;3.53;2.88;;;;;;;7.01;45.11;100590.03;10280784;28;20073;-71
2021/04/26 03:30:27;;;;;;;4.57;2.70;;;;;;;6.96;45.20;100585.97;10274723;28;20050;-70
2021/04/26 03:35:29;;;;;;;4.00;2.63;;;;;;;6.86;45.17;100575.06;10273612;28;20097;-70
2021/04/26 03:40:30;;;;;;;3.15;2.72;;;;;;;6.67;45.71;100564.75;10317375;23;20123;-71
2021/04/26 03:45:31;;;;;;;7.13;2.92;;;;;;;6.67;45.51;100573.53;10351529;28;20054;-71
2021/04/26 03:50:33;;;;;;;3.90;2.88;;;;;;;6.53;45.99;100568.19;10341056;28;20054;-69
2021/04/26 03:55:33;;;;;;;3.88;2.70;;;;;;;6.41;46.39;100575.06;10324328;28;20050;-69
2021/04/26 04:00:35;;;;;;;5.18;2.88;;;;;;;6.52;45.52;100569.16;10310938;28;20058;-70
2021/04/26 04:05:37;;;;;;;5.38;2.60;;;;;;;6.41;45.84;100574.19;10319162;28;20571;-70
2021/04/26 04:10:38;;;;;;;5.40;2.85;;;;;;;6.35;46.92;100544.53;10307116;28;20050;-69
2021/04/26 04:15:39;;;;;;;4.68;3.08;;;;;;;6.39;46.16;100561.06;10307568;28;20050;-70
2021/04/26 04:20:40;;;;;;;4.10;2.83;;;;;;;6.15;46.46;100552.75;10301975;28;20069;-68
2021/04/26 04:25:41;;;;;;;5.82;3.03;;;;;;;6.05;46.24;100556.84;10300764;28;20547;-69
2021/04/26 04:30:42;;;;;;;5.25;3.03;;;;;;;6.00;46.43;100563.28;10305800;28;20053;-71
2021/04/26 04:35:43;;;;;;;5.15;3.08;;;;;;;6.14;46.84;100577.47;10306663;28;20046;-69
2021/04/26 04:40:44;;;;;;;2.90;2.35;;;;;;;5.97;46.83;100581.91;10309625;28;20512;-70
2021/04/26 04:45:45;;;;;;;4.93;2.53;;;;;;;5.95;47.30;100577.66;10305595;28;20054;-68
2021/04/26 04:50:47;;;;;;;3.03;2.45;;;;;;;6.09;46.65;100583.03;10305665;28;20505;-68
2021/04/26 04:55:48;;;;;;;4.72;2.90;;;;;;;6.20;46.59;100577.16;10306166;28;20111;-70
2021/04/26 05:00:48;;;;;;;5.13;2.25;;;;;;;6.25;45.65;100583.00;10322179;28;20058;-70
2021/04/26 05:05:49;;;;;;;4.05;2.67;;;;;;;6.18;46.09;100585.16;10299209;28;20050;-68
2021/04/26 05:10:50;;;;;;;4.80;2.20;;;;;;;6.42;45.27;100583.84;10307381;28;20054;-69
2021/04/26 05:15:51;;;;;;;3.25;2.30;;;;;;;6.41;45.02;100577.72;10295372;28;20155;-68
2021/04/26 05:20:52;;;;;;;6.07;2.17;;;;;;;6.49;44.59;100575.44;10306578;28;20054;-67
2021/04/26 05:25:53;;;;;;;4.65;2.63;;;;;;;6.57;44.57;100559.13;10307566;28;20401;-68
2021/04/26 05:30:54;;;;;;;3.08;2.13;;;;;;;6.72;44.28;100584.69;10310393;28;20054;-68
2021/04/26 05:35:55;;;;;;;3.00;1.88;;;;;;;6.74;43.93;100576.69;10302268;28;20050;-68
2021/04/26 05:40:56;;;;;;;7.88;3.10;;;;;;;6.86;43.93;100581.22;10310520;28;20042;-68
2021/04/26 05:45:58;;;;;;;2.00;1.75;;;;;;;6.90;43.54;100577.47;10302208;28;20054;-68
2021/04/26 05:50:59;;;;;;;4.88;3.00;;;;;;;7.01;43.06;100574.16;10301004;28;20046;-67
2021/04/26 05:56:00;;;;;;;1.92;1.63;;;;;;;7.20;42.02;100581.81;10306313;28;20061;-68
2021/04/26 06:01:01;;;;;;;3.58;1.50;;;;;;;7.52;44.57;100589.59;10300847;28;20055;-70
2021/04/26 06:06:03;;;;;;;2.63;1.88;;;;;;;7.87;42.12;100601.56;10287601;28;20074;-69
2021/04/26 06:11:04;;;;;;;2.97;1.85;;;;;;;7.99;41.15;100581.34;10297985;28;20505;-70
2021/04/26 06:16:06;;;;;;;3.38;1.80;;;;;;;8.08;40.85;100592.22;10304942;28;20129;-69
2021/04/26 06:21:07;;;;;;;3.42;2.58;;;;;;;8.24;40.33;100580.63;10299636;28;20140;-69
2021/04/26 06:26:08;;;;;;;4.38;2.20;;;;;;;8.25;40.16;100600.88;10303122;28;20067;-69
2021/04/26 06:31:09;;;;;;;2.97;1.70;;;;;;;8.48;40.08;100600.28;10307277;28;20083;-69
2021/04/26 06:36:10;;;;;;;3.25;1.75;;;;;;;8.67;39.49;100593.72;10291483;28;20042;-69
2021/04/26 06:41:11;;;;;;;4.00;1.63;;;;;;;8.82;39.32;100597.16;10285748;28;20131;-68
2021/04/26 06:46:12;;;;;;;4.78;1.42;;;;;;;9.02;39.29;100587.81;10292273;28;20140;-69
2021/04/26 06:51:13;;;;;;;2.50;1.50;;;;;;;8.93;39.30;100583.13;10293060;28;20877;-68
2021/04/26 06:56:14;;;;;;;2.72;1.85;;;;;;;8.91;39.84;100579.75;10294529;28;20075;-70
2021/04/26 07:01:15;;;;;;;2.88;1.60;;;;;;;9.20;39.26;100575.94;10294556;28;20058;-70
2021/04/26 07:06:20;;;;;;;3.58;1.88;;;;;;;9.41;38.57;100563.91;10295363;28;20082;-69
2021/04/26 07:11:21;;;;;;;4.32;1.98;;;;;;;9.67;38.87;100584.16;10298131;28;20543;-69
2021/04/26 07:16:22;;;;;;;4.40;1.88;;;;;;;9.48;38.89;100555.38;10297345;28;20054;-68
2021/04/26 07:21:23;;;;;;;3.25;1.83;;;;;;;9.79;37.99;100545.22;10295805;28;20039;-69
2021/04/26 07:26:24;;;;;;;2.47;1.75;;;;;;;10.25;37.54;100556.94;10305131;28;20113;-69
2021/04/26 07:31:25;;;;;;;4.40;1.88;;;;;;;10.50;36.83;100558.66;10304789;28;20055;-68
2021/04/26 07:36:26;;;;;;;5.43;1.73;;;;;;;10.83;35.79;100557.06;10300218;28;20128;-68
2021/04/26 07:41:27;;;;;;;2.72;1.40;;;;;;;11.17;34.64;100561.56;10305218;28;20057;-68
2021/04/26 07:46:28;;;;;;;2.45;1.17;;;;;;;11.23;34.10;100551.28;10301671;28;21025;-69
2021/04/26 07:51:29;;;;;;;3.45;0.82;;;;;;;11.54;32.33;100535.53;10313070;28;20516;-69
2021/04/26 07:56:31;;;;;;;3.03;1.00;;;;;;;11.84;32.05;100526.00;10321019;28;20555;-67
2021/04/26 08:01:32;;;;;;;2.90;1.10;;;;;;;12.38;34.40;100535.81;10316185;28;20637;-69
2021/04/26 08:06:33;;;;;;;3.40;0.88;;;;;;;12.63;31.45;100522.22;10307256;28;20054;-69
2021/04/26 08:11:34;;;;;;;2.88;0.85;;;;;;;12.32;31.23;100517.63;10318854;28;20058;-69
2021/04/26 08:16:35;;;;;;;2.15;1.10;;;;;;;12.52;30.79;100531.13;10328171;28;20050;-68
2021/04/26 08:21:37;;;;;;;2.30;0.93;;;;;;;12.81;30.01;100517.97;10305743;28;20050;-69
2021/04/26 08:26:38;;;;;;;1.73;1.02;;;;;;;12.70;29.26;100524.25;10281231;28;20498;-66
2021/04/26 08:31:39;;;;;;;3.67;1.00;;;;;;;12.81;28.63;100525.16;10273660;28;20785;-70
2021/04/26 08:36:41;;;;;;;2.35;0.90;;;;;;;13.06;28.99;100506.03;10271976;28;20542;-69
2021/04/26 08:41:43;;;;;;;4.20;1.00;;;;;;;13.42;28.84;100509.16;10275891;28;20066;-69
2021/04/26 08:46:45;;;;;;;1.80;0.90;;;;;;;13.68;28.02;100486.41;10280965;28;20505;-70
2021/04/26 08:51:46;;;;;;;2.17;1.75;;;;;;;14.10;27.17;100502.22;10284357;28;21345;-70
2021/04/26 08:56:48;;;;;;;2.00;0.93;;;;;;;14.41;27.25;100492.22;10282183;28;20057;-70
2021/04/26 09:02:03;;;;;;;1.48;0.70;;;;;;;14.40;25.61;100490.53;10276068;28;20050;-69
2021/04/26 09:07:09;;;;;;;2.97;0.63;;;;;;;14.00;26.00;100486.16;10282104;28;20406;-71
2021/04/26 09:12:13;;;;;;;4.03;0.70;;;;;;;14.65;25.14;100480.22;10271828;28;20464;-70
2021/04/26 09:17:30;;;;;;;2.75;0.80;;;;;;;14.55;24.69;100469.50;10279590;28;20046;-71
2021/04/26 09:22:41;;;;;;;2.00;0.57;;;;;;;15.00;24.63;100468.81;10322794;28;20046;-70
2021/04/26 09:27:59;;;;;;;1.85;0.60;;;;;;;14.95;24.12;100462.22;10279020;28;20046;-71
2021/04/26 09:33:41;;;;;;;2.42;0.73;;;;;;;15.56;23.07;100466.97;10277528;28;20074;-71
2021/04/26 09:38:48;;;;;;;0.98;0.70;;;;;;;15.49;22.65;100457.88;10267158;28;20549;-74
2021/04/26 09:43:59;;;;;;;0.95;0.47;;;;;;;15.73;22.22;100465.34;10330456;23;20072;-73
2021/04/26 09:49:07;;;;;;;2.38;0.50;;;;;;;16.07;21.27;100450.41;10318061;28;20129;-70
2021/04/26 09:54:09;;;;;;;2.38;0.50;;;;;;;16.26;21.89;100455.59;10277771;28;20049;-72
2021/04/26 09:59:13;;;;;;;4.22;0.60;;;;;;;16.85;20.84;100438.03;10271095;28;20050;-74
2021/04/26 10:04:14;;;;;;;2.20;0.40;;;;;;;16.69;20.35;100433.38;10269567;28;20054;-72
2021/04/26 10:09:16;;;;;;;1.35;0.40;;;;;;;17.45;19.69;100412.91;10276115;28;20065;-76
2021/04/26 10:14:18;;;;;;;2.40;0.40;;;;;;;18.16;18.78;100421.41;10270087;28;20042;-73
2021/04/26 10:19:44;;;;;;;2.58;0.93;;;;;;;18.19;19.18;100426.47;10271685;28;20054;-74
2021/04/26 10:24:53;;;;;;;0.50;0.30;;;;;;;22.32;15.36;100420.03;10276927;28;20500;-72
2021/04/26 10:30:17;;;;;;;1.95;0.60;;;;;;;26.59;11.72;100411.75;10273029;28;20045;-73
2021/04/26 10:35:21;;;;;;;1.80;0.32;;;;;;;24.22;12.97;100403.25;10268082;28;20061;-71
2021/04/26 10:40:23;;;;;;;2.60;1.02;;;;;;;22.52;14.30;100395.78;10279354;28;20077;-74
2021/04/26 10:45:26;;;;;;;;;;;;;;;22.36;14.87;100388.78;10266825;28;20061;-73
2021/04/26 10:50:31;;;;;;;0.50;0.30;;;;;;;21.78;15.71;100372.63;10265076;28;19980;-73
2021/04/26 10:55:32;;;;;;;2.55;0.30;;;;;;;23.20;14.89;100343.50;10267340;28;20529;-74
2021/04/26 11:00:37;;;;;;;1.27;0.30;;;;;;;26.06;13.12;100353.03;10280144;28;20079;-74
2021/04/26 11:05:43;;;;;;;1.17;0.77;;;;;;;26.54;11.85;100338.72;10287279;28;20053;-74
2021/04/26 11:10:49;;;;;;;1.35;0.35;;;;;;;25.15;12.69;100322.41;10312456;28;20054;-74
2021/04/26 11:16:13;;;;;;;1.00;0.40;;;;;;;25.54;12.73;100323.25;10270034;28;20077;-72
2021/04/26 11:21:43;;;;;;;1.13;0.68;;;;;;;28.70;14.27;100310.59;10272974;28;20544;-72
2021/04/26 11:27:10;;;;;;;1.85;0.35;;;;;;;32.45;8.49;100305.63;10268687;28;20058;-72
2021/04/26 11:32:13;;;;;;;3.13;0.40;;;;;;;32.46;9.27;100293.50;10268448;28;20046;-73
2021/04/26 11:37:21;;;;;;;0.75;0.30;;;;;;;28.94;10.10;100283.16;10268540;28;20119;-74
2021/04/26 11:42:29;;;;;;;3.13;0.30;;;;;;;25.52;12.64;100268.09;10311754;28;20051;-74
2021/04/26 11:47:32;;;;;;;2.75;0.28;;;;;;;25.38;12.38;100275.56;10285985;28;20057;-72
2021/04/26 11:52:36;;;;;;;1.55;0.50;;;;;;;24.33;12.47;100258.44;10277472;28;20046;-73
2021/04/26 11:57:40;;;;;;;0.95;0.30;;;;;;;24.25;13.39;100245.09;10277539;28;20125;-73
2021/04/26 12:02:48;;;;;;;2.55;0.30;;;;;;;23.09;14.37;100235.50;10283661;28;20047;-73
2021/04/26 12:07:54;;;;;;;0.77;0.40;;;;;;;22.70;14.80;100226.19;10300108;28;20137;-73
2021/04/26 12:13:00;;;;;;;3.88;2.05;;;;;;;22.29;15.27;100219.75;10280425;28;20130;-73
2021/04/26 12:18:02;;;;;;;3.55;0.90;;;;;;;22.33;15.11;100209.38;10283164;28;20154;-73
2021/04/26 12:23:05;;;;;;;2.70;0.57;;;;;;;21.91;14.74;100205.81;10294699;28;21143;-73
2021/04/26 12:28:10;;;;;;;1.80;0.52;;;;;;;22.27;14.56;100186.59;10276631;28;20069;-73
2021/04/26 12:33:31;;;;;;;1.42;0.60;;;;;;;22.00;14.94;100186.44;10275108;28;20078;-73
2021/04/26 12:38:35;;;;;;;1.25;0.50;;;;;;;21.09;15.89;100191.78;10275898;28;20054;-73
2021/04/26 12:43:39;;;;;;;2.67;0.50;;;;;;;21.29;16.37;100187.41;10272976;28;20046;-72
2021/04/26 12:48:42;;;;;;;1.65;0.43;;;;;;;21.24;16.19;100180.91;10272577;28;20118;-75
2021/04/26 12:53:44;;;;;;;1.55;0.40;;;;;;;21.04;16.32;100159.91;10280599;28;21288;-74
2021/04/26 12:58:53;;;;;;;1.38;0.60;;;;;;;21.04;16.86;100149.09;10298340;28;20158;-74
2021/04/26 13:03:56;;;;;;;1.63;0.80;;;;;;;20.56;17.01;100151.50;10279290;28;20125;-73
2021/04/26 13:09:07;;;;;;;2.15;0.60;;;;;;;20.20;16.36;100141.53;10278138;28;20116;-75
2021/04/26 13:14:10;;;;;;;1.25;0.50;;;;;;;19.92;17.63;100139.50;10270054;28;20035;-73
2021/04/26 13:19:12;;;;;;;;;;;;;;;19.98;17.58;100129.81;10280341;28;20047;-74
2021/04/26 13:24:14;;;;;;;1.80;0.57;;;;;;;20.09;17.61;100124.78;10271398;28;19930;-74
2021/04/26 13:29:18;;;;;;;0.73;0.40;;;;;;;19.85;18.16;100111.59;10287997;28;20073;-73
2021/04/26 13:34:19;;;;;;;0.95;0.70;;;;;;;19.06;18.35;100089.44;10267408;28;20160;-74
2021/04/26 13:39:21;;;;;;;1.67;0.68;;;;;;;18.41;18.93;100089.94;10265548;28;20055;-73
2021/04/26 13:44:22;;;;;;;2.67;0.75;;;;;;;18.50;18.47;100070.81;10275945;28;20074;-72
2021/04/26 13:49:23;;;;;;;2.78;0.47;;;;;;;18.77;18.32;100089.34;10268023;28;20110;-72
2021/04/26 13:54:24;;;;;;;2.90;0.80;;;;;;;18.80;18.26;100067.41;10265891;28;20054;-73
2021/04/26 13:59:45;;;;;;;1.13;0.60;;;;;;;18.40;18.24;100061.31;10268616;28;20055;-71
2021/04/26 14:04:46;;;;;;;1.98;0.80;;;;;;;18.17;18.00;100059.44;10274716;28;20066;-72
2021/04/26 14:09:47;;;;;;;4.38;1.85;;;;;;;18.17;18.02;100054.06;10289124;28;20081;-71
2021/04/26 14:14:48;;;;;;;1.83;0.88;;;;;;;18.19;18.01;100050.19;10293920;28;20086;-70
2021/04/26 14:19:49;;;;;;;1.35;0.60;;;;;;;18.08;18.04;100041.66;10276875;28;20067;-71
2021/04/26 14:24:50;;;;;;;3.03;0.95;;;;;;;17.92;18.58;100024.56;10275908;28;20072;-71
2021/04/26 14:29:51;;;;;;;1.88;0.60;;;;;;;17.84;18.27;100038.88;10276958;28;20046;-70
2021/04/26 14:34:52;;;;;;;2.40;0.85;;;;;;;17.57;18.32;100018.66;10272627;28;20072;-70
2021/04/26 14:39:54;;;;;;;3.05;0.90;;;;;;;17.59;18.75;100024.69;10272331;28;20121;-71
2021/04/26 14:44:55;;;;;;;1.98;0.85;;;;;;;17.16;19.29;100020.63;10278417;28;20109;-72
2021/04/26 14:49:56;;;;;;;2.42;0.88;;;;;;;17.07;19.52;100009.91;10294455;28;20070;-71
2021/04/26 14:54:57;;;;;;;2.13;0.93;;;;;;;17.12;18.65;100004.03;10269170;28;20046;-71
2021/04/26 14:59:58;;;;;;;3.47;0.80;;;;;;;17.13;18.75;100005.72;10268984;28;20121;-72
2021/04/26 15:04:59;;;;;;;3.13;0.95;;;;;;;16.72;18.63;99984.22;10269483;28;20058;-72
2021/04/26 15:10:12;;;;;;;0.98;0.80;;;;;;;16.61;18.25;99975.50;10267852;28;20133;-69
2021/04/26 15:15:14;;;;;;;2.13;0.75;;;;;;;16.78;18.64;99970.13;10266272;28;20077;-69
2021/04/26 15:20:17;;;;;;;2.20;0.73;;;;;;;16.74;19.09;99964.25;10269387;28;20050;-70
2021/04/26 15:25:18;;;;;;;2.07;0.70;;;;;;;16.66;19.21;99963.41;10271199;28;20051;-71
2021/04/26 15:30:19;;;;;;;2.50;0.80;;;;;;;16.49;18.73;99960.75;10283424;28;20055;-70
2021/04/26 15:35:20;;;;;;;2.35;1.00;;;;;;;16.54;18.52;99953.03;10267758;28;20525;-69
2021/04/26 15:40:22;;;;;;;3.10;0.90;;;;;;;16.50;19.19;99946.31;10273166;28;20461;-72
2021/04/26 15:45:23;;;;;;;2.17;0.98;;;;;;;16.52;19.26;99949.66;10271386;28;20141;-70
2021/04/26 15:50:24;;;;;;;2.33;0.80;;;;;;;16.54;19.19;99946.81;10275155;28;20160;-72
2021/04/26 16:01:08;;;;;;;2.70;1.23;;;;;;;16.36;19.26;99920.13;10151154;28;20562;-69
2021/04/26 16:06:09;;;;;;;1.00;0.60;;;;;;;16.40;19.87;99929.53;10156992;28;20130;-71
2021/04/26 16:11:10;;;;;;;1.48;0.60;;;;;;;16.25;20.37;99897.97;10163763;28;20466;-69
2021/04/26 16:16:11;;;;;;;1.98;0.85;;;;;;;16.09;19.90;99895.31;10169324;28;20201;-70
2021/04/26 16:21:13;;;;;;;1.92;1.17;;;;;;;16.16;19.91;99896.31;10160622;28;25348;-69
2021/04/26 16:26:15;;;;;;;3.17;1.08;;;;;;;16.04;20.67;99871.66;10164931;28;20062;-69
2021/04/26 16:31:15;;;;;;;1.85;1.05;;;;;;;16.06;21.04;99866.97;10163512;28;20123;-68
2021/04/26 16:36:16;;;;;;;3.85;1.20;;;;;;;15.92;20.77;99877.53;10159159;28;20055;-69
2021/04/26 16:41:17;;;;;;;1.48;0.77;;;;;;;15.97;19.89;99869.81;10166113;28;20056;-69
2021/04/26 16:46:19;;;;;;;2.80;1.27;;;;;;;16.00;19.97;99866.78;10169721;28;20055;-70
2021/04/26 16:51:20;;;;;;;2.35;1.00;;;;;;;15.94;20.36;99857.53;10161361;28;20507;-70
2021/04/26 16:56:21;;;;;;;3.38;1.20;;;;;;;15.94;21.51;99864.78;10168713;28;20055;-70
2021/04/26 17:01:22;;;;;;;1.75;1.30;;;;;;;15.74;21.87;99848.97;10181253;28;20051;-69
2021/04/26 17:06:23;;;;;;;1.65;0.98;;;;;;;15.68;22.36;99860.38;10168658;28;20063;-70
2021/04/26 17:11:24;;;;;;;4.78;1.30;;;;;;;15.61;22.50;99856.66;10167567;28;20238;-69
2021/04/26 17:16:25;;;;;;;2.55;1.42;;;;;;;15.53;22.79;99842.25;10181828;28;20079;-71
2021/04/26 17:21:26;;;;;;;1.38;1.20;;;;;;;15.33;23.38;99854.28;10166801;28;20119;-69
2021/04/26 17:26:27;;;;;;;2.97;1.35;;;;;;;15.25;23.94;99864.97;10173601;28;20076;-71
2021/04/26 17:31:29;;;;;;;1.83;1.00;;;;;;;14.98;24.23;99848.13;10208830;28;20059;-69
2021/04/26 17:36:30;;;;;;;3.85;1.55;;;;;;;14.99;24.21;99853.34;10189208;28;20048;-69
2021/04/26 17:41:32;;;;;;;2.10;1.42;;;;;;;15.03;23.85;99851.19;10165857;28;20503;-70
2021/04/26 17:46:33;;;;;;;1.63;1.23;;;;;;;15.00;24.11;99852.34;10184628;28;20763;-71
2021/04/26 17:51:34;;;;;;;3.75;1.30;;;;;;;14.93;23.91;99845.13;10199703;28;20148;-71
2021/04/26 17:56:35;;;;;;;1.65;1.20;;;;;;;14.72;23.88;99859.75;10167463;28;20510;-71
2021/04/26 18:01:36;;;;;;;1.85;1.30;;;;;;;14.57;23.99;99837.22;10165644;28;20064;-69
2021/04/26 18:06:37;;;;;;;3.90;1.38;;;;;;;14.58;24.56;99850.44;10169658;28;20048;-69
2021/04/26 18:11:38;;;;;;;1.80;1.58;;;;;;;14.45;24.34;99833.97;10162239;28;20154;-71
2021/04/26 18:16:39;;;;;;;1.80;1.55;;;;;;;14.17;24.34;99814.56;10165133;28;20047;-69
2021/04/26 18:21:40;;;;;;;3.38;1.42;;;;;;;14.29;24.66;99856.97;10168612;28;20581;-69
2021/04/26 18:26:41;;;;;;;2.47;1.77;;;;;;;14.26;24.61;99851.94;10160205;28;20511;-69
2021/04/26 18:31:44;;;;;;;2.10;1.70;;;;;;;14.17;25.67;99844.00;10181794;28;20564;-69
2021/04/26 18:36:45;;;;;;;3.30;1.50;;;;;;;14.10;25.55;99839.28;10166994;28;20075;-69
2021/04/26 18:41:46;;;;;;;2.03;1.50;;;;;;;14.05;26.11;99852.31;10161874;28;20135;-69
2021/04/26 18:46:47;;;;;;;1.85;1.25;;;;;;;13.95;26.32;99848.88;10164876;28;20056;-69
2021/04/26 18:51:48;;;;;;;2.42;1.70;;;;;;;13.81;25.66;99839.56;10163246;28;20099;-71
2021/04/26 18:56:49;;;;;;;3.85;2.10;;;;;;;13.69;26.48;99852.34;10161722;28;20044;-71
2021/04/26 19:01:50;;;;;;;2.47;1.80;;;;;;;13.67;26.69;99874.88;10168800;28;20059;-71
2021/04/26 19:06:51;;;;;;;3.03;1.90;;;;;;;13.57;26.35;99869.59;10169062;28;20052;-70
2021/04/26 19:11:53;;;;;;;3.20;2.03;;;;;;;13.49;26.50;99861.50;10167869;28;20047;-69
2021/04/26 19:16:55;;;;;;;4.32;2.25;;;;;;;13.44;26.15;99862.78;10170624;28;20059;-69
2021/04/26 19:21:57;;;;;;;5.50;3.30;;;;;;;13.41;26.56;99867.59;10162654;28;20060;-72
2021/04/26 19:26:58;;;;;;;4.25;2.45;;;;;;;13.21;26.71;99858.81;10160587;28;20127;-69
2021/04/26 19:31:59;;;;;;;4.13;2.85;;;;;;;12.93;26.89;99858.84;10164617;28;20158;-69
2021/04/26 19:37:01;;;;;;;3.08;2.53;;;;;;;12.79;27.45;99848.66;10162178;28;20067;-70
2021/04/26 19:42:02;;;;;;;2.58;2.20;;;;;;;12.77;27.50;99872.00;10177035;28;20126;-70
2021/04/26 19:47:03;;;;;;;3.78;2.17;;;;;;;12.72;27.70;99881.28;10168777;28;20142;-69
2021/04/26 19:52:05;;;;;;;4.30;2.45;;;;;;;12.59;28.09;99882.63;10170471;28;20059;-70
2021/04/26 19:57:06;;;;;;;3.92;2.60;;;;;;;12.62;28.18;99893.84;10173897;28;20047;-69
2021/04/26 20:02:07;;;;;;;4.97;3.97;;;;;;;12.38;27.73;99876.50;10176507;28;20134;-68
2021/04/26 20:07:10;;;;;;;6.93;3.55;;;;;;;12.36;27.94;99897.13;10181294;28;20398;-71
2021/04/26 20:12:11;;;;;;;5.43;3.28;;;;;;;12.21;28.24;99903.91;10171144;28;20138;-70
2021/04/26 20:17:12;;;;;;;3.38;2.30;;;;;;;12.24;28.25;99908.97;10174420;28;21146;-69
2021/04/26 20:22:13;;;;;;;4.38;2.35;;;;;;;11.99;28.86;99889.91;10170941;28;20072;-69
2021/04/26 20:27:14;;;;;;;3.25;2.10;;;;;;;12.02;28.83;99896.75;10168944;28;20051;-70
2021/04/26 20:32:15;;;;;;;3.22;1.88;;;;;;;12.02;28.75;99897.63;10167586;28;20104;-68
2021/04/26 20:37:17;;;;;;;3.17;2.88;;;;;;;11.94;29.13;99910.81;10166891;28;20052;-69
2021/04/26 20:42:18;;;;;;;4.13;2.58;;;;;;;11.89;29.38;99907.72;10164250;28;20103;-69
2021/04/26 20:47:19;;;;;;;4.15;2.63;;;;;;;11.78;29.82;99905.16;10167232;28;20396;-69
2021/04/26 20:52:21;;;;;;;3.08;2.40;;;;;;;11.77;29.80;99914.13;10167789;28;20047;-70
2021/04/26 20:57:22;;;;;;;5.70;2.30;;;;;;;11.71;29.77;99912.03;10174658;28;20090;-69
2021/04/26 21:02:23;;;;;;;3.55;2.42;;;;;;;11.62;30.17;99903.91;10173184;28;20080;-68
2021/04/26 21:07:24;;;;;;;3.72;2.40;;;;;;;11.54;30.34;99898.41;10176621;28;20774;-69
2021/04/26 21:12:25;;;;;;;2.60;2.40;;;;;;;11.56;30.52;99908.91;10164070;28;20548;-69
2021/04/26 21:17:26;;;;;;;6.55;2.88;;;;;;;11.51;30.83;99901.34;10186971;28;20058;-70
2021/04/26 21:22:27;;;;;;;3.80;2.22;;;;;;;11.42;30.74;99915.50;10197436;28;20063;-69
2021/04/26 21:27:29;;;;;;;5.28;2.92;;;;;;;11.40;31.27;99917.47;10192732;28;20064;-68
2021/04/26 21:32:30;;;;;;;3.25;2.83;;;;;;;11.35;31.40;99901.03;10210539;28;20060;-70
2021/04/26 21:37:32;;;;;;;4.78;2.50;;;;;;;11.35;31.14;99912.56;10191308;28;20066;-69
2021/04/26 21:42:33;;;;;;;4.40;2.35;;;;;;;11.27;31.26;99899.91;10219714;28;20036;-69
2021/04/26 21:47:34;;;;;;;4.22;2.90;;;;;;;11.04;31.43;99882.47;10205316;28;20054;-68
2021/04/26 21:52:36;;;;;;;2.58;2.38;;;;;;;11.11;31.40;99899.59;10209464;28;20098;-69
2021/04/26 21:57:40;;;;;;;3.25;2.78;;;;;;;11.08;31.30;99894.50;10186779;28;20036;-70
2021/04/26 22:02:42;;;;;;;4.03;2.70;;;;;;;11.00;31.76;99899.69;10206855;28;20058;-69
2021/04/26 22:07:44;;;;;;;4.18;2.60;;;;;;;10.91;32.16;99890.69;10190098;28;20079;-69
2021/04/26 22:12:45;;;;;;;3.08;2.78;;;;;;;10.96;31.66;99891.13;10195665;28;20079;-68
2021/04/26 22:17:46;;;;;;;3.08;2.28;;;;;;;10.85;32.34;99891.22;10195197;28;20044;-72
2021/04/26 22:22:49;;;;;;;2.30;2.15;;;;;;;10.78;31.99;99898.91;10190602;28;20067;-70
2021/04/26 22:27:50;;;;;;;3.20;2.55;;;;;;;10.69;32.43;99881.06;10191381;28;20074;-68
2021/04/26 22:32:52;;;;;;;5.70;3.38;;;;;;;10.65;32.58;99895.63;10187746;28;20068;-70
2021/04/26 22:37:54;;;;;;;2.60;1.90;;;;;;;10.61;32.44;99887.91;10190315;28;20058;-69
2021/04/26 22:42:55;;;;;;;3.20;2.25;;;;;;;10.44;33.00;99875.19;10192510;28;20044;-70
2021/04/26 22:47:57;;;;;;;2.88;2.20;;;;;;;10.40;33.03;99873.78;10190005;28;20135;-68
2021/04/26 22:52:59;;;;;;;3.50;2.50;;;;;;;10.27;32.95;99856.19;10190293;28;20048;-70
2021/04/26 22:58:00;;;;;;;6.50;2.35;;;;;;;10.32;32.98;99854.94;10187905;28;20506;-70
2021/04/26 23:03:06;;;;;;;3.25;1.95;;;;;;;10.32;33.06;99868.25;10192344;28;20049;-70
2021/04/26 23:08:07;;;;;;;3.85;2.17;;;;;;;10.32;32.99;99866.41;10204275;28;20055;-70
2021/04/26 23:13:08;;;;;;;2.60;2.05;;;;;;;10.21;33.47;99863.84;10190498;28;20067;-69
2021/04/26 23:18:09;;;;;;;3.78;2.80;;;;;;;10.17;33.21;99863.25;10206635;28;20144;-69
2021/04/26 23:23:10;;;;;;;3.17;2.88;;;;;;;10.05;33.62;99851.00;10212920;28;20079;-69
2021/04/26 23:28:11;;;;;;;2.78;2.20;;;;;;;9.95;33.37;99842.94;10197156;28;20422;-68
2021/04/26 23:33:12;;;;;;;4.43;2.38;;;;;;;9.90;33.27;99839.84;10198301;28;20473;-67